Red Bank, Tennessee
Current Conditions -  °F | °C
As of 3:53 PM on Monday 22 Dec 2014 (Local Time) from KCHA Reporting Station
Overcast Overcast  
Wind Chill: 50°   Ceiling: 1600
Heat Index: 50°   Visibility: 7mi
Dew Point: 46°   Wind: 6mph
Humidity: 86%   Direction: 180°S
Pressure: 29.87"   Gusts: NA
Location:  35.11°N, 85.3°W
Report Text: KCHA 222053Z 18005KT 7SM BKN016 OVC022 10/08 A2987 RMK AO2 RAE37 SLP116 P0004 60004 T01000078 56019
Loading
Personal Weather Stations






























Interactive Weather Map New forecast layout! Learn more

10-Day Weather Forecast

Advertisements
Track Severe Weather on mobile